createdAt,value
2018-09-06T00:00:19.194Z,95491.45
2018-09-06T00:02:54.220Z,95494.73
2018-09-06T00:05:28.758Z,95490.07
2018-09-06T00:08:04.077Z,95489.45
2018-09-06T00:10:41.482Z,95483.84
2018-09-06T00:13:16.200Z,95485.09
2018-09-06T00:15:51.624Z,95484.69
2018-09-06T00:18:26.244Z,95481.23
2018-09-06T00:21:01.277Z,95485.73
2018-09-06T00:23:35.779Z,95483.13
2018-09-06T00:26:10.108Z,95475.52
2018-09-06T00:28:44.794Z,95476.45
2018-09-06T00:31:19.690Z,95474.86
2018-09-06T00:33:54.683Z,95476.30
2018-09-06T00:36:29.380Z,95473.39
2018-09-06T00:39:04.930Z,95463.05
2018-09-06T00:41:43.057Z,95463.45
2018-09-06T00:44:18.037Z,95469.72
2018-09-06T00:46:52.952Z,95470.28
2018-09-06T00:49:27.362Z,95469.73
2018-09-06T00:52:02.055Z,95470.61
2018-09-06T00:54:36.967Z,95468.71
2018-09-06T00:57:11.812Z,95468.27
2018-09-06T00:59:46.846Z,95470.94
2018-09-06T01:02:21.431Z,95465.09
2018-09-06T01:04:56.200Z,95458.65
2018-09-06T01:07:31.175Z,95460.20
2018-09-06T01:10:06.789Z,95454.10
2018-09-06T01:12:41.455Z,95460.86
2018-09-06T01:15:15.982Z,95454.40
2018-09-06T01:17:50.522Z,95456.27
2018-09-06T01:20:24.887Z,95454.50
2018-09-06T01:22:59.610Z,95452.58
2018-09-06T01:25:39.888Z,95449.58
2018-09-06T01:28:14.511Z,95448.48
2018-09-06T01:30:49.920Z,95451.82
2018-09-06T01:33:24.331Z,95446.21
2018-09-06T01:36:04.609Z,95451.04
2018-09-06T01:38:38.961Z,95446.50
2018-09-06T01:41:14.103Z,95446.09
2018-09-06T01:43:48.784Z,95447.11
2018-09-06T01:46:23.559Z,95442.56
2018-09-06T01:48:58.052Z,95440.57
2018-09-06T01:51:32.688Z,95442.91
2018-09-06T01:54:07.628Z,95444.13
2018-09-06T01:56:42.583Z,95445.27
2018-09-06T01:59:17.079Z,95447.27
2018-09-06T02:01:52.387Z,95440.35
2018-09-06T02:04:26.734Z,95440.56
2018-09-06T02:07:01.585Z,95438.62
2018-09-06T02:09:36.196Z,95435.84
2018-09-06T02:12:11.175Z,95439.80
2018-09-06T02:14:45.768Z,95437.48
2018-09-06T02:17:20.747Z,95438.71
2018-09-06T02:19:55.565Z,95440.83
2018-09-06T02:22:30.333Z,95433.34
2018-09-06T02:25:04.951Z,95431.97
2018-09-06T02:27:39.641Z,95430.31
2018-09-06T02:30:14.467Z,95433.23
2018-09-06T02:32:48.796Z,95424.70
2018-09-06T02:35:23.218Z,95421.88
2018-09-06T02:37:58.076Z,95428.55
2018-09-06T02:40:39.216Z,95425.45
2018-09-06T02:43:15.039Z,95429.17
2018-09-06T02:45:49.767Z,95422.55
2018-09-06T02:48:30.238Z,95418.33
2018-09-06T02:51:09.873Z,95410.22
2018-09-06T02:53:45.177Z,95413.75
2018-09-06T02:56:19.940Z,95409.65
2018-09-06T02:58:54.999Z,95409.03
2018-09-06T03:01:29.996Z,95403.23
2018-09-06T03:04:04.620Z,95398.60
2018-09-06T03:06:39.292Z,95402.70
2018-09-06T03:09:13.691Z,95407.33
2018-09-06T03:11:49.227Z,95401.51
2018-09-06T03:14:23.742Z,95403.53
2018-09-06T03:16:58.501Z,95408.84
2018-09-06T03:19:33.242Z,95402.82
2018-09-06T03:22:08.692Z,95408.24
2018-09-06T03:24:43.751Z,95409.05
2018-09-06T03:27:18.595Z,95399.22
2018-09-06T03:29:53.108Z,95398.11
2018-09-06T03:32:28.593Z,95400.39
2018-09-06T03:35:03.453Z,95401.73
2018-09-06T03:37:38.419Z,95400.91
2018-09-06T03:40:12.871Z,95399.19
2018-09-06T03:42:47.587Z,95396.30
2018-09-06T03:45:21.967Z,95405.82
2018-09-06T03:47:56.965Z,95406.64
2018-09-06T03:50:32.267Z,95404.01
2018-09-06T03:53:06.862Z,95404.72
2018-09-06T03:55:41.719Z,95410.45
2018-09-06T03:58:16.335Z,95412.25
2018-09-06T04:00:51.208Z,95411.45
2018-09-06T04:03:26.068Z,95405.13
2018-09-06T04:06:00.656Z,95404.33
2018-09-06T04:08:35.143Z,95402.93
2018-09-06T04:11:09.944Z,95404.73
2018-09-06T04:13:45.074Z,95398.09
2018-09-06T04:16:19.558Z,95401.70
2018-09-06T04:18:54.415Z,95403.32
2018-09-06T04:21:28.975Z,95405.74
2018-09-06T04:24:03.831Z,95405.95
2018-09-06T04:26:38.124Z,95409.36
2018-09-06T04:29:12.668Z,95407.84
2018-09-06T04:31:47.432Z,95410.04
2018-09-06T04:34:21.907Z,95405.32
2018-09-06T04:36:56.656Z,95400.80
2018-09-06T04:39:31.311Z,95399.02
2018-09-06T04:42:06.298Z,95390.58
2018-09-06T04:44:41.469Z,95398.11
2018-09-06T04:47:16.044Z,95403.44
2018-09-06T04:49:50.679Z,95398.21
2018-09-06T04:52:25.421Z,95397.81
2018-09-06T04:55:00.392Z,95402.53
2018-09-06T04:57:35.268Z,95407.34
2018-09-06T05:00:09.764Z,95411.67
2018-09-06T05:02:44.364Z,95403.63
2018-09-06T05:05:19.245Z,95404.14
2018-09-06T05:07:53.943Z,95405.04
2018-09-06T05:10:28.461Z,95402.42
2018-09-06T05:13:02.807Z,95398.81
2018-09-06T05:15:37.212Z,95399.80
2018-09-06T05:18:11.752Z,95402.70
2018-09-06T05:20:46.579Z,95398.30
2018-09-06T05:23:21.048Z,95403.23
2018-09-06T05:25:55.687Z,95396.19
2018-09-06T05:28:30.644Z,95400.64
2018-09-06T05:31:05.224Z,95397.91
2018-09-06T05:33:39.737Z,95398.98
2018-09-06T05:36:14.303Z,95394.75
2018-09-06T05:38:49.107Z,95394.36
2018-09-06T05:41:23.760Z,95396.47
2018-09-06T05:43:58.642Z,95391.45
2018-09-06T05:46:33.461Z,95396.85
2018-09-06T05:49:08.179Z,95397.95
2018-09-06T05:51:42.864Z,95389.58
2018-09-06T05:54:17.356Z,95393.70
2018-09-06T05:56:52.038Z,95398.98
2018-09-06T05:59:26.926Z,95399.57
2018-09-06T06:02:01.756Z,95400.62
2018-09-06T06:04:36.649Z,95408.76
2018-09-06T06:07:11.625Z,95407.20
2018-09-06T06:09:46.359Z,95406.47
2018-09-06T06:12:20.815Z,95405.09
2018-09-06T06:14:55.749Z,95403.95
2018-09-06T06:17:30.287Z,95410.20
2018-09-06T06:20:05.586Z,95408.20
2018-09-06T06:22:40.469Z,95407.75
2018-09-06T06:25:14.941Z,95409.52
2018-09-06T06:27:50.362Z,95405.42
2018-09-06T06:30:25.432Z,95410.78
2018-09-06T06:33:00.179Z,95409.70
2018-09-06T06:35:34.968Z,95413.45
2018-09-06T06:38:09.311Z,95414.36
2018-09-06T06:40:43.767Z,95411.88
2018-09-06T06:43:18.711Z,95407.83
2018-09-06T06:45:53.479Z,95411.71
2018-09-06T06:48:28.284Z,95408.72
2018-09-06T06:51:02.963Z,95412.03
2018-09-06T06:53:37.358Z,95408.75
2018-09-06T06:56:12.183Z,95412.84
2018-09-06T06:58:47.223Z,95403.23
2018-09-06T07:01:22.392Z,95401.89
2018-09-06T07:03:57.136Z,95398.46
2018-09-06T07:06:32.043Z,95396.70
2018-09-06T07:09:08.327Z,95396.70
2018-09-06T07:11:42.828Z,95392.25
2018-09-06T07:14:17.216Z,95395.57
2018-09-06T07:16:52.068Z,95398.18
2018-09-06T07:19:27.414Z,95388.39
2018-09-06T07:22:02.080Z,95395.28
2018-09-06T07:24:36.727Z,95391.82
2018-09-06T07:27:11.595Z,95391.89
2018-09-06T07:29:46.439Z,95388.30
2018-09-06T07:32:22.033Z,95386.00
2018-09-06T07:34:57.503Z,95390.76
2018-09-06T07:37:32.228Z,95388.08
2018-09-06T07:40:06.823Z,95385.14
2018-09-06T07:42:41.784Z,95390.91
2018-09-06T07:45:16.275Z,95376.61
2018-09-06T07:47:50.870Z,95375.66
2018-09-06T07:50:25.675Z,95379.91
2018-09-06T07:53:00.657Z,95381.87
2018-09-06T07:55:35.660Z,95374.50
2018-09-06T07:58:10.800Z,95376.98
2018-09-06T08:00:45.113Z,95369.09
2018-09-06T08:03:20.345Z,95375.57
2018-09-06T08:05:55.092Z,95372.05
2018-09-06T08:08:29.525Z,95371.91
2018-09-06T08:11:04.428Z,95363.45
2018-09-06T08:13:39.612Z,95367.47
2018-09-06T08:16:14.060Z,95362.02
2018-09-06T08:18:49.430Z,95362.56
2018-09-06T08:21:24.603Z,95355.86
2018-09-06T08:23:59.106Z,95360.30
2018-09-06T08:26:34.127Z,95359.84
2018-09-06T08:29:08.939Z,95364.36
2018-09-06T08:31:43.301Z,95360.86
2018-09-06T08:34:18.492Z,95358.87
2018-09-06T08:36:53.530Z,95354.87
2018-09-06T08:39:28.835Z,95350.59
2018-09-06T08:42:03.295Z,95354.04
2018-09-06T08:44:38.296Z,95358.67
2018-09-06T08:47:12.788Z,95356.14
2018-09-06T08:49:47.783Z,95349.14
2018-09-06T08:52:22.237Z,95352.10
2018-09-06T08:54:57.204Z,95364.33
2018-09-06T08:57:31.752Z,95367.78
2018-09-06T09:00:06.304Z,95369.45
2018-09-06T09:02:40.876Z,95360.47
2018-09-06T09:05:15.633Z,95363.59
2018-09-06T09:07:50.704Z,95360.09
2018-09-06T09:10:25.710Z,95356.89
2018-09-06T09:13:00.909Z,95351.87
2018-09-06T09:15:35.872Z,95347.03
2018-09-06T09:18:10.558Z,95348.91
2018-09-06T09:20:45.130Z,95346.37
2018-09-06T09:23:19.540Z,95342.42
2018-09-06T09:25:54.388Z,95337.18
2018-09-06T09:28:28.875Z,95342.81
2018-09-06T09:31:03.582Z,95327.29
2018-09-06T09:33:38.449Z,95330.77
2018-09-06T09:36:14.942Z,95333.66
2018-09-06T09:38:50.560Z,95327.61
2018-09-06T09:41:25.160Z,95321.80
2018-09-06T09:43:59.888Z,95322.41
2018-09-06T09:49:09.003Z,95322.23
2018-09-06T09:51:43.846Z,95328.20
2018-09-06T09:54:18.479Z,95326.41
2018-09-06T09:56:52.958Z,95321.97
2018-09-06T09:59:27.664Z,95319.23
2018-09-06T10:02:07.206Z,95310.75
2018-09-06T10:04:47.183Z,95308.34
2018-09-06T10:07:27.081Z,95299.27
2018-09-06T10:10:02.834Z,95299.52
2018-09-06T10:12:37.631Z,95297.20
2018-09-06T10:15:12.635Z,95297.43
2018-09-06T10:17:47.413Z,95296.23
2018-09-06T10:20:22.227Z,95295.94
2018-09-06T10:22:57.074Z,95292.88
2018-09-06T10:25:31.807Z,95295.50
2018-09-06T10:28:06.491Z,95287.39
2018-09-06T10:30:41.530Z,95282.66
2018-09-06T10:33:16.452Z,95277.38
2018-09-06T10:35:51.781Z,95277.72
2018-09-06T10:38:26.419Z,95275.95
2018-09-06T10:41:00.878Z,95272.62
2018-09-06T10:43:35.820Z,95268.05
2018-09-06T10:46:10.485Z,95260.39
2018-09-06T10:48:45.399Z,95265.88
2018-09-06T10:51:19.785Z,95265.69
2018-09-06T10:53:54.884Z,95263.72
2018-09-06T10:56:29.957Z,95251.13
2018-09-06T10:59:04.411Z,95252.53
2018-09-06T11:01:39.647Z,95255.23
2018-09-06T11:04:14.650Z,95253.24
2018-09-06T11:06:49.074Z,95250.63
2018-09-06T11:09:23.926Z,95249.47
2018-09-06T11:11:58.828Z,95247.23
2018-09-06T11:14:33.200Z,95249.89
2018-09-06T11:17:08.420Z,95241.73
2018-09-06T11:19:42.713Z,95240.59
2018-09-06T11:22:17.349Z,95241.55
2018-09-06T11:24:52.375Z,95233.58
2018-09-06T11:27:27.243Z,95233.53
2018-09-06T11:30:01.876Z,95232.89
2018-09-06T11:32:36.731Z,95232.23
2018-09-06T11:35:11.548Z,95222.27
2018-09-06T11:37:46.762Z,95225.84
2018-09-06T11:40:21.247Z,95216.96
2018-09-06T11:42:56.738Z,95221.12
2018-09-06T11:45:31.623Z,95219.78
2018-09-06T11:48:05.971Z,95218.13
2018-09-06T11:50:41.191Z,95214.02
2018-09-06T11:53:15.647Z,95212.73
2018-09-06T11:55:50.724Z,95201.47
2018-09-06T11:58:25.495Z,95206.95
2018-09-06T12:00:59.971Z,95199.48
2018-09-06T12:03:35.127Z,95195.56
2018-09-06T12:06:10.071Z,95198.52
2018-09-06T12:08:45.259Z,95190.31
2018-09-06T12:11:19.780Z,95190.13
2018-09-06T12:13:54.650Z,95181.59
2018-09-06T12:16:29.209Z,95181.07
2018-09-06T12:19:04.361Z,95176.43
2018-09-06T12:21:39.420Z,95174.30
2018-09-06T12:24:14.171Z,95175.09
2018-09-06T12:26:48.871Z,95168.23
2018-09-06T12:29:23.611Z,95165.73
2018-09-06T12:31:58.869Z,95169.06
2018-09-06T12:34:34.004Z,95165.96
2018-09-06T12:37:12.117Z,95162.63
2018-09-06T12:39:46.752Z,95153.72
2018-09-06T12:42:21.983Z,95153.82
2018-09-06T12:44:56.835Z,95147.20
2018-09-06T12:47:32.039Z,95141.69
2018-09-06T12:50:06.764Z,95141.30
2018-09-06T12:52:41.520Z,95137.45
2018-09-06T12:55:16.072Z,95135.77
2018-09-06T12:57:51.533Z,95133.55
2018-09-06T13:00:26.599Z,95134.73
2018-09-06T13:03:01.138Z,95135.69
2018-09-06T13:05:35.645Z,95134.72
2018-09-06T13:08:10.181Z,95136.05
2018-09-06T13:10:45.675Z,95132.54
2018-09-06T13:13:20.338Z,95120.03
2018-09-06T13:15:54.772Z,95126.44
2018-09-06T13:18:29.289Z,95127.73
2018-09-06T13:21:03.971Z,95128.91
2018-09-06T13:23:38.488Z,95117.25
2018-09-06T13:26:13.511Z,95124.11
2018-09-06T13:28:47.965Z,95117.38
2018-09-06T13:31:22.743Z,95113.28
2018-09-06T13:33:57.511Z,95099.31
2018-09-06T13:36:32.028Z,95102.64
2018-09-06T13:39:09.037Z,95096.95
2018-09-06T13:41:43.451Z,95104.05
2018-09-06T13:44:18.179Z,95100.98
2018-09-06T13:46:53.159Z,95103.05
2018-09-06T13:49:27.849Z,95100.36
2018-09-06T13:52:02.393Z,95093.34
2018-09-06T13:54:37.507Z,95092.81
2018-09-06T13:57:11.987Z,95090.73
2018-09-06T13:59:46.252Z,95081.66
2018-09-06T14:02:20.959Z,95079.84
2018-09-06T14:04:55.653Z,95070.13
2018-09-06T14:07:30.531Z,95068.02
2018-09-06T14:10:05.646Z,95063.55
2018-09-06T14:12:40.463Z,95067.89
2018-09-06T14:15:15.240Z,95060.39
2018-09-06T14:17:49.693Z,95064.63
2018-09-06T14:20:24.091Z,95062.27
2018-09-06T14:22:58.487Z,95047.59
2018-09-06T14:25:33.602Z,95046.02
2018-09-06T14:28:08.215Z,95047.98
2018-09-06T14:30:42.819Z,95048.27
2018-09-06T14:33:17.408Z,95049.66
2018-09-06T14:35:51.952Z,95043.95
2018-09-06T14:38:26.590Z,95049.81
2018-09-06T14:41:01.183Z,95044.42
2018-09-06T14:43:35.801Z,95039.27
2018-09-06T14:46:10.387Z,95039.46
2018-09-06T14:48:44.789Z,95040.73
2018-09-06T14:51:19.472Z,95038.41
2018-09-06T14:53:54.155Z,95034.08
2018-09-06T14:56:29.235Z,95034.39
2018-09-06T14:59:03.801Z,95030.14
2018-09-06T15:01:38.292Z,95028.17
2018-09-06T15:04:12.957Z,95022.22
2018-09-06T15:06:47.897Z,95021.23
2018-09-06T15:09:22.213Z,95021.52
2018-09-06T15:11:57.039Z,95018.77
2018-09-06T15:14:31.775Z,95019.61
2018-09-06T15:17:06.239Z,95024.16
2018-09-06T15:19:40.925Z,95023.93
2018-09-06T15:22:15.294Z,95028.11
2018-09-06T15:24:49.710Z,95023.22
2018-09-06T15:27:24.154Z,95019.73
2018-09-06T15:29:58.468Z,95011.11
2018-09-06T15:32:33.362Z,95015.33
2018-09-06T15:35:07.959Z,95012.84
2018-09-06T15:37:42.450Z,95013.05
2018-09-06T15:40:16.816Z,95010.38
2018-09-06T15:42:51.326Z,95001.36
2018-09-06T15:45:25.775Z,94999.20
2018-09-06T15:48:00.320Z,94998.44
2018-09-06T15:50:36.661Z,94994.97
2018-09-06T15:53:11.319Z,94997.11
2018-09-06T15:55:46.628Z,94990.49
2018-09-06T15:58:21.259Z,94993.20
2018-09-06T16:00:55.666Z,94994.48
2018-09-06T16:03:30.469Z,94996.66
2018-09-06T16:06:05.647Z,94997.52
2018-09-06T16:08:40.111Z,94998.94
2018-09-06T16:11:14.839Z,94990.48
2018-09-06T16:13:49.728Z,94995.80
2018-09-06T16:16:24.044Z,94990.90
2018-09-06T16:18:58.652Z,94987.30
2018-09-06T16:21:33.322Z,94988.60
2018-09-06T16:24:07.833Z,94990.06
2018-09-06T16:26:44.728Z,94985.19
2018-09-06T16:29:19.289Z,94983.50
2018-09-06T16:31:53.820Z,94978.25
2018-09-06T16:34:29.065Z,94982.89
2018-09-06T16:37:03.758Z,94974.98
2018-09-06T16:39:38.415Z,94983.66
2018-09-06T16:42:13.199Z,94984.73
2018-09-06T16:44:47.836Z,94980.11
2018-09-06T16:47:22.199Z,94989.85
2018-09-06T16:49:56.649Z,94989.28
2018-09-06T16:52:31.274Z,94997.32
2018-09-06T16:55:08.436Z,95002.55
2018-09-06T16:57:43.236Z,95004.25
2018-09-06T17:00:17.723Z,94998.20
2018-09-06T17:02:52.315Z,94994.37
2018-09-06T17:05:27.103Z,94998.98
2018-09-06T17:08:01.971Z,95000.35
2018-09-06T17:10:36.472Z,94990.64
2018-09-06T17:13:11.101Z,94995.19
2018-09-06T17:15:45.649Z,94991.56
2018-09-06T17:18:20.095Z,94991.37
2018-09-06T17:20:54.561Z,94994.89
2018-09-06T17:23:29.538Z,94992.29
2018-09-06T17:26:04.678Z,94998.20
2018-09-06T17:28:39.257Z,94999.85
2018-09-06T17:31:13.903Z,95004.69
2018-09-06T17:33:48.220Z,95007.36
2018-09-06T17:36:23.234Z,95011.89
2018-09-06T17:38:57.726Z,95008.20
2018-09-06T17:41:32.428Z,95012.16
2018-09-06T17:44:07.168Z,95011.39
2018-09-06T17:46:41.701Z,95011.93
2018-09-06T17:49:16.667Z,95011.94
2018-09-06T17:51:51.382Z,95014.32
2018-09-06T17:54:25.863Z,95014.05
2018-09-06T17:57:00.927Z,95017.77
2018-09-06T17:59:35.212Z,95014.60
2018-09-06T18:02:10.057Z,95016.14
2018-09-06T18:04:45.059Z,95012.14
2018-09-06T18:07:19.768Z,95020.08
2018-09-06T18:09:54.044Z,95022.72
2018-09-06T18:12:28.711Z,95026.69
2018-09-06T18:15:03.169Z,95024.55
2018-09-06T18:17:37.871Z,95035.88
2018-09-06T18:20:12.443Z,95032.95
2018-09-06T18:22:47.213Z,95035.38
2018-09-06T18:25:21.658Z,95046.17
2018-09-06T18:27:56.992Z,95051.42
2018-09-06T18:30:31.616Z,95048.23
2018-09-06T18:33:06.088Z,95053.25
2018-09-06T18:35:40.913Z,95048.50
2018-09-06T18:38:15.708Z,95056.70
2018-09-06T18:40:50.701Z,95051.41
2018-09-06T18:43:25.019Z,95050.08
2018-09-06T18:45:59.299Z,95054.31
2018-09-06T18:48:34.372Z,95054.52
2018-09-06T18:51:09.154Z,95056.94
2018-09-06T18:53:44.234Z,95068.78
2018-09-06T18:56:18.796Z,95067.66
2018-09-06T18:58:53.445Z,95068.39
2018-09-06T19:01:27.972Z,95067.33
2018-09-06T19:04:02.472Z,95082.12
2018-09-06T19:06:37.663Z,95097.89
2018-09-06T19:09:13.299Z,95097.89
2018-09-06T19:11:47.915Z,95095.78
2018-09-06T19:14:22.785Z,95106.09
2018-09-06T19:16:57.344Z,95105.88
2018-09-06T19:19:31.796Z,95111.45
2018-09-06T19:22:06.431Z,95106.70
2018-09-06T19:24:44.819Z,95109.14
2018-09-06T19:27:19.319Z,95118.70
2018-09-06T19:29:53.876Z,95125.53
2018-09-06T19:32:28.731Z,95135.09
2018-09-06T19:35:03.536Z,95135.83
2018-09-06T19:37:37.843Z,95143.03
2018-09-06T19:40:12.640Z,95144.59
2018-09-06T19:42:47.391Z,95145.91
2018-09-06T19:45:22.113Z,95146.20
2018-09-06T19:47:56.757Z,95148.73
2018-09-06T19:50:31.279Z,95152.48
2018-09-06T19:53:05.976Z,95155.11
2018-09-06T19:55:40.311Z,95154.02
2018-09-06T19:58:15.275Z,95157.05
2018-09-06T20:00:50.267Z,95158.37
2018-09-06T20:03:24.799Z,95155.25
2018-09-06T20:05:59.396Z,95151.28
2018-09-06T20:08:33.848Z,95145.84
2018-09-06T20:11:08.343Z,95141.52
2018-09-06T20:13:42.991Z,95134.53
2018-09-06T20:16:19.483Z,95131.99
2018-09-06T20:18:54.152Z,95135.90
2018-09-06T20:24:29.724Z,95131.30
2018-09-06T20:27:05.135Z,95131.41
2018-09-06T20:29:39.846Z,95128.75
2018-09-06T20:32:14.807Z,95125.06
2018-09-06T20:34:49.935Z,95122.89
2018-09-06T20:37:24.843Z,95121.38
2018-09-06T20:40:02.207Z,95122.96
2018-09-06T20:42:40.820Z,95124.66
2018-09-06T20:45:15.517Z,95128.67
2018-09-06T20:47:50.276Z,95131.48
2018-09-06T20:50:25.224Z,95130.14
2018-09-06T20:53:00.148Z,95135.34
2018-09-06T20:55:35.080Z,95133.65
2018-09-06T20:58:09.971Z,95136.77
2018-09-06T21:00:44.476Z,95141.72
2018-09-06T21:03:20.772Z,95150.38
2018-09-06T21:05:56.076Z,95143.84
2018-09-06T21:08:31.373Z,95143.59
2018-09-06T21:11:07.351Z,95142.69
2018-09-06T21:13:42.064Z,95146.87
2018-09-06T21:16:16.793Z,95143.87
2018-09-06T21:18:51.466Z,95141.23
2018-09-06T21:21:25.957Z,95134.83
2018-09-06T21:24:00.835Z,95131.05
2018-09-06T21:26:35.747Z,95127.73
2018-09-06T21:29:10.431Z,95127.42
2018-09-06T21:31:44.838Z,95128.26
2018-09-06T21:34:19.299Z,95130.37
2018-09-06T21:36:53.912Z,95133.86
2018-09-06T21:39:28.380Z,95131.75
2018-09-06T21:42:03.502Z,95135.73
2018-09-06T21:44:38.036Z,95128.26
2018-09-06T21:47:12.500Z,95129.44
2018-09-06T21:49:46.815Z,95126.84
2018-09-06T21:52:21.227Z,95122.37
2018-09-06T21:54:56.061Z,95136.25
2018-09-06T21:57:30.708Z,95130.09
2018-09-06T22:00:05.693Z,95138.47
2018-09-06T22:03:44.488Z,95140.78
2018-09-06T22:06:19.244Z,95150.73
2018-09-06T22:08:53.623Z,95151.09
2018-09-06T22:11:28.359Z,95155.80
2018-09-06T22:14:03.209Z,95164.20
2018-09-06T22:16:37.862Z,95168.34
2018-09-06T22:19:12.563Z,95160.93
2018-09-06T22:21:47.168Z,95158.98
2018-09-06T22:24:22.088Z,95166.07
2018-09-06T22:26:56.428Z,95163.59
2018-09-06T22:29:31.469Z,95161.29
2018-09-06T22:32:06.070Z,95157.22
2018-09-06T22:34:40.555Z,95158.05
2018-09-06T22:37:14.894Z,95157.81
2018-09-06T22:39:49.672Z,95157.22
2018-09-06T22:42:23.952Z,95155.90
2018-09-06T22:44:58.761Z,95167.39
2018-09-06T22:47:33.764Z,95172.98
2018-09-06T22:50:08.683Z,95173.55
2018-09-06T22:52:43.420Z,95184.91
2018-09-06T22:55:18.559Z,95183.91
2018-09-06T22:57:52.987Z,95188.48
2018-09-06T23:00:31.252Z,95185.13
2018-09-06T23:03:11.112Z,95188.88
2018-09-06T23:05:45.483Z,95188.56
2018-09-06T23:08:19.879Z,95184.02
2018-09-06T23:10:54.442Z,95183.73
2018-09-06T23:13:29.017Z,95181.67
2018-09-06T23:16:03.875Z,95179.20
2018-09-06T23:18:38.183Z,95178.48
2018-09-06T23:21:13.089Z,95181.03
2018-09-06T23:23:47.873Z,95176.02
2018-09-06T23:26:22.444Z,95175.41
2018-09-06T23:28:57.307Z,95184.80
2018-09-06T23:31:31.952Z,95177.66
2018-09-06T23:34:06.627Z,95180.36
2018-09-06T23:36:41.324Z,95177.07
2018-09-06T23:39:15.717Z,95179.13
2018-09-06T23:41:50.604Z,95175.55
2018-09-06T23:44:25.376Z,95180.57
2018-09-06T23:47:00.755Z,95178.98
2018-09-06T23:49:35.195Z,95172.84
2018-09-06T23:52:12.148Z,95174.23
2018-09-06T23:54:47.223Z,95173.78
2018-09-06T23:57:22.083Z,95175.75
2018-09-06T23:59:56.996Z,95168.67
